createdAt,value
2019-01-20T10:30:47.343Z,100819.08
2019-01-20T10:33:36.740Z,100778.05
2019-01-20T10:36:25.749Z,100827.01
2019-01-20T10:39:14.593Z,100824.57
2019-01-20T10:42:03.605Z,100827.56
2019-01-20T10:44:52.438Z,100830.56
2019-01-20T10:47:34.691Z,100830.84
2019-01-20T10:50:23.582Z,100839.53
2019-01-20T10:53:12.560Z,100837.09
2019-01-20T10:56:01.552Z,100836.02
2019-01-20T10:58:31.211Z,100840.07
2019-01-20T11:01:20.148Z,100835.72
2019-01-20T11:04:08.947Z,100830.86
2019-01-20T11:06:57.888Z,100833.02
2019-01-20T11:09:46.831Z,100830.01
2019-01-20T11:12:35.836Z,100830.00
2019-01-20T11:15:24.863Z,100823.77
2019-01-20T11:18:13.765Z,100828.64
2019-01-20T11:21:02.767Z,100835.16
2019-01-20T11:23:32.347Z,100829.16
2019-01-20T11:26:13.669Z,100830.52
2019-01-20T11:29:02.523Z,100837.84
2019-01-20T11:31:51.426Z,100829.16
2019-01-20T11:34:40.277Z,100830.23
2019-01-20T11:37:29.195Z,100834.56
2019-01-20T11:40:18.114Z,100837.83
2019-01-20T11:43:14.501Z,100831.83
2019-01-20T11:46:03.428Z,100833.99
2019-01-20T11:48:52.349Z,100739.73
2019-01-20T11:51:41.274Z,100772.05
2019-01-20T11:54:30.276Z,100829.34
2019-01-20T11:57:19.192Z,100831.50
2019-01-20T12:00:28.997Z,100805.95
2019-01-20T12:03:17.879Z,100832.84
2019-01-20T12:06:06.774Z,100830.91
2019-01-20T12:08:55.628Z,100831.14
2019-01-20T12:11:44.582Z,100831.95
2019-01-20T12:14:14.100Z,100830.86
2019-01-20T12:17:02.920Z,100829.20
2019-01-20T12:19:51.824Z,100827.84
2019-01-20T12:22:21.483Z,100828.38
2019-01-20T12:25:03.146Z,100818.84
2019-01-20T12:27:52.007Z,100815.56
2019-01-20T12:30:40.925Z,100814.16
2019-01-20T12:33:29.791Z,100821.77
2019-01-20T12:36:18.652Z,100811.94
2019-01-20T12:42:17.513Z,100802.07
2019-01-20T12:48:22.542Z,100810.14
2019-01-20T12:51:12.514Z,100795.14
2019-01-20T12:53:42.704Z,100807.55
2019-01-20T12:56:31.639Z,100810.77
2019-01-20T12:59:20.527Z,100810.98
2019-01-20T13:02:09.437Z,100807.13
2019-01-20T13:04:58.379Z,100812.53
2019-01-20T13:07:47.417Z,100810.33
2019-01-20T13:10:36.229Z,100775.02
2019-01-20T13:13:24.782Z,100814.06
2019-01-20T13:16:13.252Z,100817.31
2019-01-20T13:19:02.257Z,100807.19
2019-01-20T13:21:51.051Z,100807.98
2019-01-20T13:24:39.968Z,100804.41
2019-01-20T13:27:22.136Z,100807.65
2019-01-20T13:30:30.300Z,100800.04
2019-01-20T13:33:19.289Z,100804.29
2019-01-20T13:36:08.224Z,100806.70
2019-01-20T13:38:57.113Z,100805.59
2019-01-20T13:41:37.008Z,100812.69
2019-01-20T13:44:06.681Z,100810.48
2019-01-20T13:46:55.535Z,100804.72
2019-01-20T13:49:44.433Z,100800.88
2019-01-20T13:52:33.329Z,100803.59
2019-01-20T13:55:22.204Z,100737.89
2019-01-20T13:58:11.141Z,100807.31
2019-01-20T14:00:59.757Z,100804.59
2019-01-20T14:03:48.597Z,100804.58
2019-01-20T14:06:37.648Z,100786.38
2019-01-20T14:09:26.517Z,100812.70
2019-01-20T14:12:15.387Z,100812.66
2019-01-20T14:15:25.065Z,100808.83
2019-01-20T14:18:13.973Z,100786.11
2019-01-20T14:23:58.621Z,100811.76
2019-01-20T14:26:47.440Z,100759.47
2019-01-20T14:29:28.937Z,100811.23
2019-01-20T14:32:17.875Z,100815.33
2019-01-20T14:35:27.705Z,100810.44
2019-01-20T14:38:16.576Z,100815.33
2019-01-20T14:41:05.496Z,100812.60
2019-01-20T14:43:54.487Z,100818.06
2019-01-20T14:46:43.328Z,100813.45
2019-01-20T14:49:32.197Z,100811.02
2019-01-20T14:52:21.102Z,100818.69
2019-01-20T14:55:10.610Z,100818.17
2019-01-20T14:57:59.489Z,100823.37
2019-01-20T15:00:48.444Z,100825.33
2019-01-20T15:03:37.306Z,100827.27
2019-01-20T15:06:26.202Z,100834.41
2019-01-20T15:09:15.080Z,100833.89
2019-01-20T15:15:53.295Z,100840.29
2019-01-20T15:18:54.366Z,100839.81
2019-01-20T15:21:53.682Z,100847.27
2019-01-20T15:24:42.739Z,100852.20
2019-01-20T15:27:24.509Z,100858.28
2019-01-20T15:29:54.181Z,100857.27
2019-01-20T15:33:02.041Z,100861.70
2019-01-20T15:35:50.991Z,100862.31
2019-01-20T15:38:39.811Z,100861.02
2019-01-20T15:41:28.734Z,100869.53
2019-01-20T15:44:17.736Z,100871.76
2019-01-20T15:46:47.291Z,100872.38
2019-01-20T15:49:36.129Z,100878.16
2019-01-20T15:52:24.959Z,100878.47
2019-01-20T15:55:34.578Z,100878.25
2019-01-20T15:58:23.470Z,100883.44
2019-01-20T16:01:12.405Z,100890.84
2019-01-20T16:04:01.238Z,100891.69
2019-01-20T16:06:50.083Z,100897.98
2019-01-20T16:09:38.938Z,100895.80
2019-01-20T16:12:27.833Z,100897.17
2019-01-20T16:15:49.658Z,100906.43
2019-01-20T16:18:28.157Z,100911.33
2019-01-20T16:21:17.136Z,100908.88
2019-01-20T16:24:06.024Z,100920.55
2019-01-20T16:26:48.373Z,100924.86
2019-01-20T16:29:37.395Z,100931.37
2019-01-20T16:32:26.337Z,100932.98
2019-01-20T16:35:15.568Z,100939.74
